Time;durP1;ratioP1;P1;durP2;ratioP2;P2;SDS_P1;SDS_P2;PMS_P1;PMS_P2;Temp;Humidity;BMP_temperature;BMP_pressure;BME280_temperature;BME280_humidity;BME280_pressure;Samples;Min_cycle;Max_cycle;Signal;HPM_P1;HPM_P2
2022/06/12 00:00:01;;;;;;;3.33;1.75;;;22.80;93.80;;;;;;5018206;28;20022;-74
2022/06/12 00:02:27;;;;;;;3.33;1.80;;;22.70;93.70;;;;;;5022342;28;20530;-74
2022/06/12 00:04:52;;;;;;;2.80;1.50;;;22.60;94.40;;;;;;5035097;28;20435;-74
2022/06/12 00:07:18;;;;;;;9.43;2.80;;;22.50;94.20;;;;;;5020748;28;20025;-74
2022/06/12 00:09:44;;;;;;;5.60;1.80;;;22.50;94.30;;;;;;5038126;28;20021;-74
2022/06/12 00:12:11;;;;;;;5.32;2.22;;;22.40;94.60;;;;;;5024454;28;20010;-75
2022/06/12 00:14:37;;;;;;;5.22;2.20;;;22.40;95.30;;;;;;5037941;28;20402;-74
2022/06/12 00:17:03;;;;;;;11.68;2.75;;;22.40;95.20;;;;;;5027208;28;20034;-74
2022/06/12 00:19:30;;;;;;;10.13;2.33;;;22.30;95.90;;;;;;5021902;28;20076;-74
2022/06/12 00:21:57;;;;;;;6.10;2.45;;;22.40;96.10;;;;;;5030406;28;20081;-74
2022/06/12 00:24:24;;;;;;;4.20;2.58;;;22.40;96.30;;;;;;5009394;28;20040;-73
2022/06/12 00:26:53;;;;;;;3.88;2.30;;;22.50;96.60;;;;;;5023359;28;20093;-73
2022/06/12 00:29:22;;;;;;;7.57;2.70;;;22.50;97.10;;;;;;5011758;28;20393;-74
2022/06/12 00:32:10;;;;;;;9.45;3.30;;;22.40;97.70;;;;;;5007347;28;20072;-74
2022/06/12 00:34:41;;;;;;;9.18;4.15;;;22.40;98.70;;;;;;5025978;28;20440;-74
2022/06/12 00:37:07;;;;;;;13.77;3.72;;;22.30;99.90;;;;;;5029757;28;20017;-73
2022/06/12 00:39:33;;;;;;;9.45;4.38;;;22.30;99.90;;;;;;5037604;28;20101;-74
2022/06/12 00:42:01;;;;;;;10.18;3.83;;;22.20;99.90;;;;;;5032828;28;20041;-73
2022/06/12 00:44:38;;;;;;;12.18;4.00;;;22.20;99.90;;;;;;5036322;28;20081;-74
2022/06/12 00:47:08;;;;;;;9.63;4.22;;;22.10;99.90;;;;;;5018501;28;20500;-74
2022/06/12 00:49:40;;;;;;;12.68;4.75;;;22.10;99.90;;;;;;5008005;28;20033;-74
2022/06/12 00:52:36;;;;;;;11.85;4.68;;;22.00;99.90;;;;;;5035417;28;20024;-74
2022/06/12 00:55:27;;;;;;;8.85;4.35;;;22.00;99.90;;;;;;5033391;28;20034;-74
2022/06/12 00:58:01;;;;;;;6.80;4.78;;;22.00;99.90;;;;;;5011886;28;20056;-75
2022/06/12 01:00:27;;;;;;;9.30;5.05;;;21.90;99.90;;;;;;5032971;28;20038;-74
2022/06/12 01:02:53;;;;;;;11.50;4.55;;;21.90;99.90;;;;;;5006768;28;20029;-74
2022/06/12 01:08:07;;;;;;;13.73;4.90;;;21.90;99.90;;;;;;5035549;28;20056;-75
2022/06/12 01:10:36;;;;;;;11.13;5.13;;;21.80;99.90;;;;;;5028406;28;20018;-74
2022/06/12 01:13:11;;;;;;;12.57;4.63;;;21.80;99.90;;;;;;5032362;28;20080;-75
2022/06/12 01:15:42;;;;;;;13.57;5.07;;;21.80;99.90;;;;;;5030378;28;20026;-74
2022/06/12 01:18:11;;;;;;;11.32;5.88;;;21.70;99.90;;;;;;5025100;28;20101;-74
2022/06/12 01:20:49;;;;;;;14.75;4.53;;;21.80;99.90;;;;;;5033766;28;20057;-74
2022/06/12 01:23:38;;;;;;;20.05;5.70;;;21.70;99.90;;;;;;5037068;28;20032;-74
2022/06/12 01:26:25;;;;;;;16.20;6.60;;;21.70;99.90;;;;;;5032147;28;20022;-74
2022/06/12 01:29:08;;;;;;;12.85;6.30;;;21.70;99.90;;;;;;5021863;28;20022;-74
2022/06/12 01:31:37;;;;;;;16.75;5.60;;;21.70;99.90;;;;;;5021384;28;20026;-73
2022/06/12 01:34:33;;;;;;;9.35;6.05;;;21.70;99.90;;;;;;5008306;28;20397;-74
2022/06/12 01:37:21;;;;;;;19.35;6.00;;;21.60;99.90;;;;;;5007345;28;20084;-74
2022/06/12 01:40:01;;;;;;;15.57;7.35;;;21.60;99.90;;;;;;5024463;28;20375;-73
2022/06/12 01:42:41;;;;;;;16.30;6.45;;;21.60;99.90;;;;;;5007208;28;20037;-73
2022/06/12 01:45:24;;;;;;;16.92;7.00;;;21.50;99.90;;;;;;5028404;28;20029;-74
2022/06/12 01:48:15;;;;;;;17.98;6.50;;;21.50;99.90;;;;;;5030843;28;20056;-74
2022/06/12 01:51:04;;;;;;;18.13;6.43;;;21.50;99.90;;;;;;5007490;28;20608;-73
2022/06/12 01:53:56;;;;;;;18.63;6.22;;;21.50;99.90;;;;;;5033259;28;20025;-74
2022/06/12 01:56:38;;;;;;;22.80;6.32;;;21.40;99.90;;;;;;5036041;28;20509;-74
2022/06/12 01:59:24;;;;;;;15.75;7.00;;;21.40;99.90;;;;;;5020504;28;20029;-74
2022/06/12 02:02:16;;;;;;;13.02;7.22;;;21.30;99.90;;;;;;5026129;28;20033;-74
2022/06/12 02:04:53;;;;;;;16.92;8.40;;;21.30;99.90;;;;;;5034465;28;20033;-73
2022/06/12 02:07:19;;;;;;;15.43;7.07;;;21.20;99.90;;;;;;5036740;28;20021;-73
2022/06/12 02:09:59;;;;;;;18.17;7.85;;;21.10;99.90;;;;;;5023901;28;20071;-74
2022/06/12 02:15:20;;;;;;;17.52;7.72;;;21.00;99.90;;;;;;5030522;28;20398;-73
2022/06/12 02:18:03;;;;;;;13.80;7.15;;;21.00;99.90;;;;;;5033878;28;20057;-73
2022/06/12 02:20:34;;;;;;;19.35;8.95;;;20.80;99.90;;;;;;5011051;28;20091;-73
2022/06/12 02:23:02;;;;;;;;;;;20.80;99.90;;;;;;5029911;28;20389;-73
2022/06/12 02:25:33;;;;;;;20.17;7.53;;;20.80;99.90;;;;;;5031423;28;19917;-74
2022/06/12 02:28:09;;;;;;;15.73;8.85;;;20.70;99.90;;;;;;5025393;28;20029;-74
2022/06/12 02:30:39;;;;;;;17.30;8.15;;;20.60;99.90;;;;;;5039233;28;20377;-74
2022/06/12 02:33:22;;;;;;;21.20;8.00;;;20.60;99.90;;;;;;5039875;28;20402;-74
2022/06/12 02:35:54;;;;;;;19.20;9.30;;;20.60;99.90;;;;;;5039968;28;20037;-74
2022/06/12 02:38:35;;;;;;;16.83;8.55;;;20.50;99.90;;;;;;5041185;28;20033;-74
2022/06/12 02:41:35;;;;;;;19.85;8.55;;;20.50;99.90;;;;;;5016583;28;20022;-73
2022/06/12 02:44:08;;;;;;;17.95;8.50;;;20.40;99.90;;;;;;4977597;28;20112;-74
2022/06/12 02:46:41;;;;;;;14.30;8.63;;;20.40;99.90;;;;;;5027227;28;20597;-73
2022/06/12 02:49:09;;;;;;;19.98;8.35;;;20.30;99.90;;;;;;5009158;28;20049;-73
2022/06/12 02:52:02;;;;;;;18.02;8.55;;;20.30;99.90;;;;;;5036102;28;20037;-74
2022/06/12 02:54:39;;;;;;;12.18;8.23;;;20.30;99.90;;;;;;5038061;28;20818;-73
2022/06/12 02:57:21;;;;;;;17.60;8.02;;;20.20;99.90;;;;;;5001221;28;20057;-73
2022/06/12 03:00:13;;;;;;;21.35;8.88;;;20.20;99.90;;;;;;5041537;28;20031;-73
2022/06/12 03:02:47;;;;;;;14.90;8.43;;;20.20;99.90;;;;;;5032680;28;20026;-73
2022/06/12 03:05:26;;;;;;;19.33;8.07;;;20.20;99.90;;;;;;5035657;28;20032;-73
2022/06/12 03:08:04;;;;;;;23.27;10.35;;;20.10;99.90;;;;;;5021282;28;20017;-73
2022/06/12 03:10:39;;;;;;;19.58;8.68;;;20.10;99.90;;;;;;5042353;28;20445;-73
2022/06/12 03:13:08;;;;;;;15.88;8.18;;;20.00;99.90;;;;;;5042172;28;20083;-73
2022/06/12 03:15:36;;;;;;;12.85;7.78;;;20.00;99.90;;;;;;5037711;28;20109;-74
2022/06/12 03:18:07;;;;;;;13.65;8.60;;;20.00;99.90;;;;;;5008036;28;20076;-74
2022/06/12 03:20:47;;;;;;;18.45;9.02;;;19.90;99.90;;;;;;5027465;28;20018;-73
2022/06/12 03:23:42;;;;;;;16.13;8.17;;;19.90;99.90;;;;;;5024890;28;20034;-73
2022/06/12 03:26:14;;;;;;;17.23;9.27;;;19.80;99.90;;;;;;5026177;28;20057;-73
2022/06/12 03:29:06;;;;;;;13.95;9.18;;;19.80;99.90;;;;;;5028640;28;20017;-73
2022/06/12 03:31:51;;;;;;;15.32;8.43;;;19.80;99.90;;;;;;5036049;28;20026;-73
2022/06/12 03:34:37;;;;;;;14.45;8.65;;;19.80;99.90;;;;;;5027518;28;20096;-73
2022/06/12 03:37:13;;;;;;;20.02;9.60;;;19.80;99.90;;;;;;5015510;28;20044;-73
2022/06/12 03:39:52;;;;;;;13.77;8.57;;;19.70;99.90;;;;;;5037637;28;20385;-73
2022/06/12 03:42:26;;;;;;;16.67;8.85;;;19.70;99.90;;;;;;5020473;28;20474;-73
2022/06/12 03:45:11;;;;;;;21.63;9.52;;;19.60;99.90;;;;;;5038071;28;20030;-73
2022/06/12 03:47:48;;;;;;;20.45;9.65;;;19.60;99.90;;;;;;5020044;28;20049;-73
2022/06/12 03:50:33;;;;;;;17.48;9.45;;;19.50;99.90;;;;;;5004554;28;20443;-73
2022/06/12 03:53:25;;;;;;;19.58;9.35;;;19.50;99.90;;;;;;5004079;28;20522;-74
2022/06/12 03:58:55;;;;;;;20.45;10.02;;;19.50;99.90;;;;;;5024167;28;20025;-73
2022/06/12 04:01:22;;;;;;;17.02;9.25;;;19.50;99.90;;;;;;5027404;28;20022;-73
2022/06/12 04:03:49;;;;;;;17.88;8.88;;;19.50;99.90;;;;;;5021243;28;20409;-73
2022/06/12 04:06:22;;;;;;;17.42;9.88;;;19.40;99.90;;;;;;5035187;28;20081;-73
2022/06/12 04:08:52;;;;;;;16.55;9.23;;;19.40;99.90;;;;;;5009623;28;20521;-74
2022/06/12 04:11:21;;;;;;;18.05;9.25;;;19.40;99.90;;;;;;5032819;28;20066;-73
2022/06/12 04:13:47;;;;;;;15.75;8.77;;;19.30;99.90;;;;;;5020543;28;20486;-74
2022/06/12 04:16:27;;;;;;;14.10;9.07;;;19.30;99.90;;;;;;5030816;28;20147;-73
2022/06/12 04:18:54;;;;;;;19.63;9.65;;;19.20;99.90;;;;;;5031791;28;20036;-73
2022/06/12 04:21:27;;;;;;;26.58;9.75;;;19.10;99.90;;;;;;5009967;28;20136;-73
2022/06/12 04:24:19;;;;;;;17.35;8.55;;;19.10;99.90;;;;;;5024635;28;20545;-73
2022/06/12 04:26:57;;;;;;;22.25;10.27;;;19.20;99.90;;;;;;5009294;28;20018;-72
2022/06/12 04:29:30;;;;;;;13.30;8.30;;;19.20;99.90;;;;;;5032126;28;20029;-73
2022/06/12 04:32:01;;;;;;;17.98;9.45;;;19.20;99.90;;;;;;5028626;28;20094;-73
2022/06/12 04:34:31;;;;;;;15.18;9.75;;;19.20;99.90;;;;;;5016537;28;20033;-73
2022/06/12 04:37:23;;;;;;;17.55;8.45;;;19.20;99.90;;;;;;5017365;28;20028;-73
2022/06/12 04:39:50;;;;;;;14.75;9.13;;;19.20;99.90;;;;;;5018967;28;20034;-73
2022/06/12 04:42:20;;;;;;;16.70;9.48;;;19.20;99.90;;;;;;5000602;28;20022;-73
2022/06/12 04:44:46;;;;;;;20.05;9.02;;;19.10;99.90;;;;;;5019072;28;20113;-73
2022/06/12 04:47:20;;;;;;;15.27;8.98;;;19.10;99.90;;;;;;5021847;28;20018;-73
2022/06/12 04:49:46;;;;;;;19.95;8.95;;;19.10;99.90;;;;;;5021886;28;20030;-73
2022/06/12 04:52:13;;;;;;;19.05;9.70;;;19.10;99.90;;;;;;5024491;28;20010;-73
2022/06/12 04:54:40;;;;;;;16.40;9.15;;;19.10;99.90;;;;;;5023846;28;20037;-73
2022/06/12 04:57:07;;;;;;;16.35;8.45;;;19.10;99.90;;;;;;5028568;28;20018;-73
2022/06/12 04:59:34;;;;;;;12.57;8.93;;;19.10;99.90;;;;;;5026463;28;20033;-73
2022/06/12 05:02:01;;;;;;;13.98;9.10;;;19.20;99.90;;;;;;5014338;28;20116;-73
2022/06/12 05:04:30;;;;;;;15.65;9.02;;;19.20;99.90;;;;;;5028432;28;20026;-73
2022/06/12 05:06:57;;;;;;;16.15;8.70;;;19.30;99.90;;;;;;5015957;28;20089;-73
2022/06/12 05:09:28;;;;;;;14.18;8.98;;;19.30;99.90;;;;;;5015458;28;20105;-73
2022/06/12 05:11:54;;;;;;;18.02;8.10;;;19.40;99.90;;;;;;5019099;28;20018;-73
2022/06/12 05:14:20;;;;;;;15.68;8.05;;;19.50;99.90;;;;;;5034972;28;20025;-73
2022/06/12 05:16:54;;;;;;;14.38;7.97;;;19.60;99.90;;;;;;5025787;28;20030;-73
2022/06/12 05:19:26;;;;;;;14.85;7.40;;;19.70;99.90;;;;;;5023679;28;20034;-73
2022/06/12 05:21:52;;;;;;;11.40;8.40;;;19.80;99.90;;;;;;5011330;28;20032;-73
2022/06/12 05:24:18;;;;;;;19.67;7.97;;;19.90;99.90;;;;;;5007634;28;20423;-73
2022/06/12 05:26:47;;;;;;;14.65;8.07;;;20.00;99.90;;;;;;5022666;28;20022;-73
2022/06/12 05:29:35;;;;;;;12.65;8.13;;;20.10;99.90;;;;;;5010462;28;20030;-73
2022/06/12 05:32:02;;;;;;;15.63;8.05;;;20.10;99.90;;;;;;5010394;28;20391;-73
2022/06/12 05:34:29;;;;;;;14.02;8.10;;;20.10;99.90;;;;;;5030029;28;20045;-73
2022/06/12 05:36:56;;;;;;;16.13;8.23;;;20.20;99.90;;;;;;5030737;28;20021;-73
2022/06/12 05:39:23;;;;;;;16.42;8.20;;;20.30;99.90;;;;;;5030844;28;20036;-74
2022/06/12 05:41:50;;;;;;;15.57;8.75;;;20.50;99.90;;;;;;5037125;28;20025;-73
2022/06/12 05:44:17;;;;;;;15.40;8.20;;;20.50;99.90;;;;;;5030896;28;20116;-74
2022/06/12 05:46:43;;;;;;;18.77;9.60;;;20.50;99.90;;;;;;5014744;28;20028;-73
2022/06/12 05:49:09;;;;;;;17.77;8.77;;;20.40;99.90;;;;;;5034633;28;20087;-74
2022/06/12 05:51:35;;;;;;;20.20;9.30;;;20.40;99.90;;;;;;5033123;28;20026;-73
2022/06/12 05:54:01;;;;;;;19.38;8.43;;;20.40;99.90;;;;;;5015870;28;20555;-74
2022/06/12 05:56:29;;;;;;;18.75;8.90;;;20.40;99.90;;;;;;5019073;28;20090;-73
2022/06/12 05:58:55;;;;;;;12.55;8.73;;;20.30;99.90;;;;;;5035438;28;20021;-73
2022/06/12 06:01:22;;;;;;;15.50;8.85;;;20.30;99.90;;;;;;5025909;28;20426;-73
2022/06/12 06:03:49;;;;;;;18.38;8.48;;;20.30;99.90;;;;;;5034576;28;20021;-73
2022/06/12 06:06:26;;;;;;;13.68;7.20;;;20.30;99.90;;;;;;5016345;28;20112;-74
2022/06/12 06:08:52;;;;;;;16.38;8.27;;;20.40;99.90;;;;;;5021653;28;20025;-73
2022/06/12 06:11:19;;;;;;;14.27;7.32;;;20.40;99.90;;;;;;5027251;28;20060;-73
2022/06/12 06:13:46;;;;;;;11.88;8.50;;;20.50;99.90;;;;;;5036585;28;20036;-73
2022/06/12 06:16:12;;;;;;;15.68;7.78;;;20.60;99.90;;;;;;5033019;28;20060;-74
2022/06/12 06:18:40;;;;;;;13.07;7.82;;;20.70;99.90;;;;;;5001108;28;20030;-73
2022/06/12 06:21:08;;;;;;;17.67;7.53;;;20.80;99.90;;;;;;5032243;28;20028;-73
2022/06/12 06:23:35;;;;;;;13.93;7.80;;;20.80;99.90;;;;;;5029922;28;20105;-73
2022/06/12 06:26:01;;;;;;;14.57;7.25;;;20.90;99.90;;;;;;5036772;28;20045;-73
2022/06/12 06:28:27;;;;;;;11.35;6.75;;;20.80;99.90;;;;;;5032977;28;20017;-74
2022/06/12 06:30:53;;;;;;;18.95;8.20;;;21.00;99.90;;;;;;5013570;28;20025;-73
2022/06/12 06:33:19;;;;;;;13.65;6.78;;;21.20;99.90;;;;;;5030664;28;20018;-73
2022/06/12 06:35:45;;;;;;;12.07;7.30;;;21.30;99.90;;;;;;5030252;28;20175;-73
2022/06/12 06:38:11;;;;;;;13.60;6.50;;;21.40;99.90;;;;;;5013095;28;20087;-73
2022/06/12 06:40:37;;;;;;;13.07;7.07;;;21.50;99.90;;;;;;5017602;28;20024;-74
2022/06/12 06:43:04;;;;;;;14.27;6.20;;;21.60;99.90;;;;;;5035569;28;20026;-74
2022/06/12 06:48:14;;;;;;;12.27;6.47;;;21.90;99.90;;;;;;5034334;28;20109;-73
2022/06/12 06:50:42;;;;;;;18.48;6.60;;;22.00;99.90;;;;;;5014985;28;20013;-73
2022/06/12 06:53:09;;;;;;;14.27;6.25;;;22.20;99.90;;;;;;5027339;28;20042;-73
2022/06/12 06:55:36;;;;;;;12.98;5.45;;;22.20;99.90;;;;;;5029303;28;20017;-73
2022/06/12 06:58:07;;;;;;;16.08;6.05;;;22.40;99.90;;;;;;5038942;28;20022;-73
2022/06/12 07:00:35;;;;;;;17.63;6.55;;;22.60;99.90;;;;;;5030915;28;20025;-74
2022/06/12 07:03:01;;;;;;;10.18;5.68;;;22.60;99.90;;;;;;5034899;28;20021;-73
2022/06/12 07:05:29;;;;;;;15.30;6.20;;;22.70;99.90;;;;;;5036647;28;20072;-73
2022/06/12 07:07:55;;;;;;;11.02;6.30;;;22.90;99.90;;;;;;5039732;28;20018;-73
2022/06/12 07:10:24;;;;;;;12.43;6.50;;;23.00;99.90;;;;;;5020379;28;20032;-74
2022/06/12 07:12:51;;;;;;;10.52;5.60;;;22.70;99.90;;;;;;5039951;28;20060;-73
2022/06/12 07:15:18;;;;;;;11.18;6.10;;;22.70;99.90;;;;;;5011539;28;20501;-74
2022/06/12 07:17:45;;;;;;;13.13;5.97;;;22.60;99.90;;;;;;5030685;28;20067;-74
2022/06/12 07:20:15;;;;;;;11.82;5.38;;;22.60;99.90;;;;;;5037994;28;20044;-75
2022/06/12 07:22:41;;;;;;;12.93;6.63;;;22.80;99.90;;;;;;5015623;28;20031;-74
2022/06/12 07:25:08;;;;;;;10.10;5.32;;;23.10;99.90;;;;;;5017631;28;20393;-74
2022/06/12 07:27:34;;;;;;;13.45;6.45;;;23.10;99.90;;;;;;5001981;28;20034;-73
2022/06/12 07:30:00;;;;;;;12.50;5.80;;;23.60;99.90;;;;;;5004817;28;20076;-73
2022/06/12 07:32:26;;;;;;;9.38;5.30;;;24.00;99.90;;;;;;5015894;28;20551;-73
2022/06/12 07:34:53;;;;;;;11.80;5.38;;;24.20;99.90;;;;;;5039322;28;20031;-74
2022/06/12 07:37:19;;;;;;;7.10;4.85;;;24.30;99.90;;;;;;5034737;28;20029;-74
2022/06/12 07:39:45;;;;;;;12.40;5.40;;;24.40;99.90;;;;;;5011966;28;20054;-75
2022/06/12 07:42:12;;;;;;;14.57;5.78;;;24.40;99.90;;;;;;5033750;28;20030;-74
2022/06/12 07:44:39;;;;;;;7.30;5.25;;;24.60;99.90;;;;;;5029146;28;20022;-75
2022/06/12 07:47:05;;;;;;;8.77;4.85;;;24.70;99.90;;;;;;5033142;28;20395;-74
2022/06/12 07:49:32;;;;;;;12.55;5.95;;;24.80;99.90;;;;;;5034797;28;20022;-75
2022/06/12 07:52:01;;;;;;;8.88;4.95;;;24.80;99.90;;;;;;5036037;28;20021;-74
2022/06/12 07:54:28;;;;;;;12.70;6.07;;;24.80;99.90;;;;;;5033342;28;20028;-74
2022/06/12 07:56:54;;;;;;;10.25;5.20;;;24.80;99.90;;;;;;5035742;28;20021;-76
2022/06/12 07:59:21;;;;;;;10.55;5.30;;;24.60;99.90;;;;;;5036218;28;20017;-75
2022/06/12 08:01:47;;;;;;;11.35;4.82;;;24.50;99.90;;;;;;5034230;28;20736;-75
2022/06/12 08:04:13;;;;;;;13.73;5.32;;;24.60;99.90;;;;;;5038640;28;20467;-74
2022/06/12 08:06:40;;;;;;;14.55;5.47;;;24.60;99.90;;;;;;5035024;28;20045;-75
2022/06/12 08:09:07;;;;;;;7.13;4.43;;;24.50;99.90;;;;;;5018887;28;20416;-75
2022/06/12 08:11:34;;;;;;;13.68;5.47;;;24.20;99.90;;;;;;5032648;28;20033;-75
2022/06/12 08:14:00;;;;;;;11.25;5.70;;;24.10;99.90;;;;;;5027328;28;20075;-75
2022/06/12 08:16:26;;;;;;;9.48;5.78;;;23.80;99.90;;;;;;5034046;28;20060;-74
2022/06/12 08:18:53;;;;;;;9.10;4.82;;;23.50;99.90;;;;;;5034424;28;20022;-75
2022/06/12 08:21:19;;;;;;;17.60;6.10;;;23.40;99.90;;;;;;5036300;28;20342;-75
2022/06/12 08:23:52;;;;;;;8.98;5.78;;;23.30;99.90;;;;;;5018315;28;20057;-76
2022/06/12 08:26:18;;;;;;;12.23;6.03;;;23.40;99.90;;;;;;5038662;28;20481;-75
2022/06/12 08:28:46;;;;;;;14.35;6.40;;;23.50;99.90;;;;;;5024846;28;20458;-75
2022/06/12 08:31:20;;;;;;;8.13;5.53;;;23.40;99.90;;;;;;5002641;28;20421;-77
2022/06/12 08:33:49;;;;;;;16.52;6.95;;;23.50;99.90;;;;;;5023485;28;20029;-77
2022/06/12 08:36:17;;;;;;;11.00;6.75;;;23.50;99.90;;;;;;5027593;28;20025;-75
2022/06/12 08:38:43;;;;;;;10.45;6.82;;;23.50;99.90;;;;;;5029448;28;20100;-75
2022/06/12 08:41:12;;;;;;;11.80;5.85;;;23.60;99.90;;;;;;5025238;28;20060;-74
2022/06/12 08:44:00;;;;;;;10.05;6.00;;;23.80;99.90;;;;;;5028160;28;20571;-75
2022/06/12 08:46:41;;;;;;;16.73;6.38;;;23.80;99.90;;;;;;5025422;28;20486;-75
2022/06/12 08:49:14;;;;;;;11.65;6.50;;;23.80;99.90;;;;;;5008706;28;20053;-75
2022/06/12 08:51:44;;;;;;;10.15;6.75;;;24.00;99.90;;;;;;5011747;28;20034;-75
2022/06/12 08:54:23;;;;;;;9.73;6.20;;;23.90;99.90;;;;;;5016745;28;20235;-76
2022/06/12 08:56:55;;;;;;;12.27;6.30;;;24.00;99.90;;;;;;5015939;28;20041;-75
2022/06/12 08:59:40;;;;;;;19.48;6.97;;;23.90;99.90;;;;;;5035549;28;20029;-76
2022/06/12 09:02:21;;;;;;;15.05;6.30;;;23.90;99.90;;;;;;5008553;28;20112;-76
2022/06/12 09:04:47;;;;;;;11.05;5.28;;;24.10;99.90;;;;;;5003974;28;20562;-75
2022/06/12 09:07:20;;;;;;;11.75;5.13;;;24.20;99.90;;;;;;5028744;28;20416;-76
2022/06/12 09:09:59;;;;;;;7.78;5.40;;;24.30;99.90;;;;;;5021965;28;20049;-76
2022/06/12 09:12:51;;;;;;;12.70;6.43;;;24.40;99.90;;;;;;5037162;28;20022;-75
2022/06/12 09:15:26;;;;;;;10.65;4.95;;;24.50;99.90;;;;;;5035679;28;20108;-76
2022/06/12 09:18:29;;;;;;;10.77;5.53;;;24.60;99.90;;;;;;5037359;28;20389;-76
2022/06/12 09:21:06;;;;;;;12.48;5.60;;;24.60;99.90;;;;;;5035747;28;20501;-74
2022/06/12 09:23:46;;;;;;;8.50;5.30;;;24.80;99.90;;;;;;5015757;28;20064;-73
2022/06/12 09:26:29;;;;;;;9.13;5.85;;;25.00;99.90;;;;;;5025369;28;20021;-76
2022/06/12 09:28:55;;;;;;;10.32;6.07;;;25.30;99.90;;;;;;5015638;28;20504;-76
2022/06/12 09:31:29;;;;;;;16.70;6.78;;;25.50;99.90;;;;;;5033155;28;20030;-75
2022/06/12 09:34:01;;;;;;;8.45;5.22;;;25.50;99.90;;;;;;5035843;28;20029;-75
2022/06/12 09:36:30;;;;;;;11.20;5.35;;;25.40;99.90;;;;;;5033650;28;20139;-76
2022/06/12 09:39:01;;;;;;;10.18;6.35;;;25.50;99.90;;;;;;5032709;28;20474;-76
2022/06/12 09:41:39;;;;;;;8.10;5.55;;;25.40;99.90;;;;;;5033123;28;20028;-76
2022/06/12 09:44:14;;;;;;;13.27;6.20;;;25.40;99.90;;;;;;5019273;28;20040;-76
2022/06/12 09:46:55;;;;;;;10.18;4.97;;;25.40;99.90;;;;;;5036967;28;20048;-75
2022/06/12 09:49:38;;;;;;;7.78;4.93;;;25.40;99.90;;;;;;5018759;28;20178;-76
2022/06/12 09:52:41;;;;;;;10.18;5.28;;;25.40;99.90;;;;;;5016288;28;20390;-75
2022/06/12 09:55:14;;;;;;;7.38;4.70;;;25.70;99.90;;;;;;5018697;28;20482;-75
2022/06/12 09:57:59;;;;;;;13.95;4.97;;;25.80;99.90;;;;;;5007262;28;20029;-76
2022/06/12 10:00:48;;;;;;;8.10;4.22;;;26.00;99.90;;;;;;5017951;28;20029;-75
2022/06/12 10:03:52;;;;;;;15.75;5.25;;;26.30;99.90;;;;;;4998111;28;20033;-75
2022/06/12 10:06:30;;;;;;;6.32;4.15;;;26.40;99.90;;;;;;5020464;28;20033;-75
2022/06/12 10:09:17;;;;;;;11.07;4.30;;;26.80;99.90;;;;;;5002678;28;20105;-75
2022/06/12 10:11:49;;;;;;;6.43;3.85;;;26.60;99.90;;;;;;5003743;28;20018;-74
2022/06/12 10:14:32;;;;;;;9.93;3.97;;;26.40;99.90;;;;;;5028075;28;20029;-76
2022/06/12 10:17:05;;;;;;;12.55;3.88;;;26.20;99.90;;;;;;5027410;28;20033;-74
2022/06/12 10:20:02;;;;;;;10.85;4.60;;;25.80;99.90;;;;;;5018435;28;20053;-74
2022/06/12 10:22:35;;;;;;;9.63;5.53;;;25.60;99.90;;;;;;5030877;28;20425;-74
2022/06/12 10:25:04;;;;;;;18.92;5.97;;;25.40;99.90;;;;;;5012470;28;20034;-76
2022/06/12 10:27:43;;;;;;;13.93;4.57;;;25.00;99.90;;;;;;5030519;28;20014;-75
2022/06/12 10:30:44;;;;;;;9.05;5.00;;;24.90;99.90;;;;;;5031609;28;20056;-74
2022/06/12 10:33:16;;;;;;;;;;;25.00;99.90;;;;;;5014263;28;20440;-75
2022/06/12 10:35:52;;;;;;;6.97;4.43;;;24.90;99.90;;;;;;5038968;28;19940;-74
2022/06/12 10:38:27;;;;;;;12.90;4.85;;;24.80;99.90;;;;;;5027996;28;20034;-74
2022/06/12 10:40:56;;;;;;;10.20;4.60;;;24.80;99.90;;;;;;5034539;28;20453;-75
2022/06/12 10:43:36;;;;;;;7.65;4.70;;;24.90;99.90;;;;;;5031181;28;20021;-74
2022/06/12 10:46:18;;;;;;;7.72;4.70;;;24.80;99.90;;;;;;5018289;28;20112;-74
2022/06/12 10:48:56;;;;;;;12.98;5.68;;;25.00;99.90;;;;;;5039936;28;20579;-73
2022/06/12 10:51:36;;;;;;;7.75;5.72;;;24.70;99.90;;;;;;5035249;28;20088;-75
2022/06/12 10:54:17;;;;;;;11.02;6.03;;;24.60;99.90;;;;;;5029676;28;20567;-74
2022/06/12 10:56:55;;;;;;;13.57;5.75;;;24.90;99.90;;;;;;5039842;28;20037;-75
2022/06/12 10:59:44;;;;;;;13.73;5.95;;;24.90;99.90;;;;;;5034523;28;20032;-74
2022/06/12 11:02:46;;;;;;;8.68;5.70;;;24.90;99.90;;;;;;5038152;28;20021;-73
2022/06/12 11:05:36;;;;;;;9.98;5.63;;;24.90;99.90;;;;;;5028402;28;20025;-75
2022/06/12 11:08:16;;;;;;;8.02;5.43;;;24.90;99.90;;;;;;5034999;28;20010;-75
2022/06/12 11:10:57;;;;;;;;;;;25.10;99.90;;;;;;5022148;28;20032;-74
2022/06/12 11:13:48;;;;;;;9.98;5.60;;;25.30;99.90;;;;;;5018822;28;19940;-74
2022/06/12 11:16:30;;;;;;;;;;;25.60;99.90;;;;;;5033225;28;20075;-75
2022/06/12 11:19:26;;;;;;;10.63;5.22;;;26.10;99.90;;;;;;5026000;28;19913;-75
2022/06/12 11:22:38;;;;;;;9.02;4.97;;;26.20;99.90;;;;;;5026435;28;20022;-76
2022/06/12 11:25:48;;;;;;;9.55;4.35;;;26.30;99.90;;;;;;5027521;28;20029;-76
2022/06/12 11:28:14;;;;;;;;;;;26.90;99.90;;;;;;5013912;28;20084;-75
2022/06/12 11:31:01;;;;;;;11.85;4.75;;;27.50;99.90;;;;;;5034399;28;19905;-75
2022/06/12 11:33:53;;;;;;;10.25;5.60;;;28.00;99.90;;;;;;5016911;28;20036;-76
2022/06/12 11:36:25;;;;;;;7.55;4.90;;;28.10;99.90;;;;;;5037929;28;20083;-76
2022/06/12 11:39:06;;;;;;;12.30;6.00;;;27.60;99.90;;;;;;5037260;28;20021;-76
2022/06/12 11:41:40;;;;;;;9.95;5.43;;;27.20;99.90;;;;;;5038362;28;20022;-76
2022/06/12 11:44:24;;;;;;;15.57;6.18;;;27.10;99.90;;;;;;5031627;28;20022;-77
2022/06/12 11:47:02;;;;;;;11.43;6.00;;;27.50;99.90;;;;;;5035660;28;20013;-74
2022/06/12 11:49:40;;;;;;;7.05;5.20;;;27.60;99.90;;;;;;5028386;28;20125;-74
2022/06/12 11:52:16;;;;;;;9.70;5.60;;;27.90;99.90;;;;;;5030451;28;20045;-74
2022/06/12 11:54:56;;;;;;;78.10;29.35;;;28.20;99.90;;;;;;5031384;28;20026;-76
2022/06/12 11:58:14;;;;;;;10.52;6.35;;;28.30;99.90;;;;;;5018530;28;20377;-75
2022/06/12 12:00:53;;;;;;;9.90;5.68;;;28.40;99.90;;;;;;4925745;28;20037;-74
2022/06/12 12:03:34;;;;;;;8.45;6.20;;;28.50;99.90;;;;;;5020168;28;20029;-74
2022/06/12 12:06:34;;;;;;;18.40;11.57;;;28.50;99.90;;;;;;5025884;28;20036;-76
2022/06/12 12:09:18;;;;;;;10.23;5.45;;;28.60;99.90;;;;;;5003286;28;20109;-75
2022/06/12 12:11:49;;;;;;;7.43;4.85;;;28.60;99.90;;;;;;5022177;28;20043;-75
2022/06/12 12:14:22;;;;;;;11.18;6.05;;;28.50;99.90;;;;;;5012813;28;20064;-75
2022/06/12 12:17:03;;;;;;;9.73;5.53;;;28.60;99.90;;;;;;5034531;28;20029;-75
2022/06/12 12:19:41;;;;;;;8.20;5.10;;;28.40;99.90;;;;;;5036486;28;20382;-75
2022/06/12 12:22:18;;;;;;;8.10;4.65;;;28.50;99.90;;;;;;5034622;28;20112;-75
2022/06/12 12:24:53;;;;;;;7.57;4.70;;;28.60;99.90;;;;;;5016666;28;20029;-76
2022/06/12 12:27:33;;;;;;;9.25;5.28;;;28.70;99.90;;;;;;5035400;28;20025;-74
2022/06/12 12:30:01;;;;;;;6.72;4.60;;;28.60;99.90;;;;;;5023741;28;20022;-74
2022/06/12 12:32:31;;;;;;;7.85;5.07;;;28.70;99.90;;;;;;5029987;28;20049;-76
2022/06/12 12:34:57;;;;;;;10.63;5.10;;;28.90;99.90;;;;;;5031265;28;20098;-74
2022/06/12 12:43:17;;;;;;;9.73;4.65;;;28.80;99.90;;;;;;5030565;28;20077;-75
2022/06/12 12:45:43;;;;;;;8.05;4.75;;;28.90;99.90;;;;;;5017328;28;20032;-75
2022/06/12 12:48:14;;;;;;;10.50;4.78;;;29.00;99.90;;;;;;5033764;28;20049;-76
2022/06/12 12:50:45;;;;;;;8.90;4.25;;;29.20;99.90;;;;;;5036768;28;20048;-74
2022/06/12 12:53:29;;;;;;;7.35;4.95;;;29.20;99.90;;;;;;5035997;28;20121;-75
2022/06/12 12:56:12;;;;;;;8.68;4.50;;;29.00;99.90;;;;;;5002172;28;20018;-75
2022/06/12 12:59:01;;;;;;;8.05;4.22;;;29.00;99.90;;;;;;5021300;28;20018;-75
2022/06/12 13:01:32;;;;;;;10.05;4.82;;;28.90;99.90;;;;;;5008033;28;20382;-76
2022/06/12 13:04:15;;;;;;;8.30;4.70;;;28.60;99.90;;;;;;5022757;28;20452;-75
2022/06/12 13:06:46;;;;;;;6.40;4.68;;;28.80;99.90;;;;;;5023905;28;20029;-75
2022/06/12 13:09:30;;;;;;;6.80;4.40;;;28.80;99.90;;;;;;5025302;28;20026;-75
2022/06/12 13:12:07;;;;;;;6.07;4.00;;;28.70;99.90;;;;;;5029757;28;20075;-74
2022/06/12 13:14:58;;;;;;;7.82;4.28;;;28.90;99.90;;;;;;5031665;28;20108;-75
2022/06/12 13:17:38;;;;;;;8.50;4.55;;;29.00;99.90;;;;;;5034629;28;20052;-75
2022/06/12 13:20:13;;;;;;;10.82;4.43;;;29.20;99.90;;;;;;5036368;28;20029;-75
2022/06/12 13:22:42;;;;;;;11.20;5.68;;;29.10;99.90;;;;;;5034907;28;20421;-75
2022/06/12 13:25:15;;;;;;;8.40;4.80;;;29.30;99.90;;;;;;5033156;28;20037;-74
2022/06/12 13:27:59;;;;;;;10.75;4.50;;;29.50;99.90;;;;;;5032954;28;20406;-74
2022/06/12 13:30:40;;;;;;;8.43;4.05;;;29.60;99.90;;;;;;5037311;28;20052;-76
2022/06/12 13:33:16;;;;;;;7.25;4.38;;;29.90;99.90;;;;;;5031341;28;20010;-74
2022/06/12 13:35:51;;;;;;;6.18;3.88;;;30.00;99.90;;;;;;5016315;28;20035;-75